sensor_id;sensor_type;location;lat;lon;timestamp;P1;durP1;ratioP1;P2;durP2;ratioP2
2438;SDS011;14509;47.992;7.848;2023-06-22T02:56:34;8.83;;;6.30;;
2438;SDS011;14509;47.992;7.848;2023-06-22T02:58:37;7.63;;;5.10;;
2438;SDS011;14509;47.992;7.848;2023-06-22T03:00:42;11.70;;;5.83;;
2438;SDS011;14509;47.992;7.848;2023-06-22T03:02:44;9.13;;;6.30;;
2438;SDS011;14509;47.992;7.848;2023-06-22T03:04:47;11.93;;;6.60;;
2438;SDS011;14509;47.992;7.848;2023-06-22T03:06:50;10.50;;;6.50;;
2438;SDS011;14509;47.992;7.848;2023-06-22T03:08:52;8.77;;;6.40;;
2438;SDS011;14509;47.992;7.848;2023-06-22T03:10:55;11.20;;;6.67;;
2438;SDS011;14509;47.992;7.848;2023-06-22T03:12:57;7.80;;;5.90;;
2438;SDS011;14509;47.992;7.848;2023-06-22T03:14:59;12.93;;;6.20;;
2438;SDS011;14509;47.992;7.848;2023-06-22T03:17:01;7.47;;;5.37;;
2438;SDS011;14509;47.992;7.848;2023-06-22T03:19:03;8.10;;;5.00;;
2438;SDS011;14509;47.992;7.848;2023-06-22T03:21:05;6.43;;;5.23;;
2438;SDS011;14509;47.992;7.848;2023-06-22T03:23:07;10.33;;;6.27;;
2438;SDS011;14509;47.992;7.848;2023-06-22T03:25:10;10.97;;;7.00;;
2438;SDS011;14509;47.992;7.848;2023-06-22T03:27:16;8.40;;;6.03;;
2438;SDS011;14509;47.992;7.848;2023-06-22T03:29:18;7.40;;;5.50;;
2438;SDS011;14509;47.992;7.848;2023-06-22T03:31:20;12.10;;;7.07;;
2438;SDS011;14509;47.992;7.848;2023-06-22T03:33:23;7.77;;;6.30;;
2438;SDS011;14509;47.992;7.848;2023-06-22T03:35:25;7.50;;;5.23;;
2438;SDS011;14509;47.992;7.848;2023-06-22T03:37:27;9.90;;;6.37;;
2438;SDS011;14509;47.992;7.848;2023-06-22T03:39:31;8.23;;;6.40;;
2438;SDS011;14509;47.992;7.848;2023-06-22T03:41:33;8.60;;;5.80;;
2438;SDS011;14509;47.992;7.848;2023-06-22T03:43:37;6.93;;;5.17;;
2438;SDS011;14509;47.992;7.848;2023-06-22T03:45:39;7.97;;;6.53;;
2438;SDS011;14509;47.992;7.848;2023-06-22T03:47:41;14.20;;;6.80;;
2438;SDS011;14509;47.992;7.848;2023-06-22T03:49:43;9.43;;;5.90;;
2438;SDS011;14509;47.992;7.848;2023-06-22T03:51:45;9.60;;;6.80;;
2438;SDS011;14509;47.992;7.848;2023-06-22T03:53:46;7.07;;;6.20;;
2438;SDS011;14509;47.992;7.848;2023-06-22T03:55:49;10.13;;;6.50;;
2438;SDS011;14509;47.992;7.848;2023-06-22T03:57:51;7.67;;;5.83;;
2438;SDS011;14509;47.992;7.848;2023-06-22T03:59:58;9.70;;;6.37;;
2438;SDS011;14509;47.992;7.848;2023-06-22T04:02:00;7.63;;;5.67;;
2438;SDS011;14509;47.992;7.848;2023-06-22T04:04:02;9.00;;;5.10;;
2438;SDS011;14509;47.992;7.848;2023-06-22T04:06:04;9.20;;;5.53;;
2438;SDS011;14509;47.992;7.848;2023-06-22T04:08:06;11.30;;;5.80;;
2438;SDS011;14509;47.992;7.848;2023-06-22T04:10:09;8.00;;;5.50;;
2438;SDS011;14509;47.992;7.848;2023-06-22T04:12:11;9.90;;;6.40;;
2438;SDS011;14509;47.992;7.848;2023-06-22T04:14:13;7.10;;;5.57;;
2438;SDS011;14509;47.992;7.848;2023-06-22T04:16:16;9.50;;;6.50;;
2438;SDS011;14509;47.992;7.848;2023-06-22T04:18:18;14.80;;;6.60;;
2438;SDS011;14509;47.992;7.848;2023-06-22T04:20:20;8.60;;;5.50;;
2438;SDS011;14509;47.992;7.848;2023-06-22T04:22:22;8.00;;;5.80;;
2438;SDS011;14509;47.992;7.848;2023-06-22T04:24:24;13.00;;;6.90;;
2438;SDS011;14509;47.992;7.848;2023-06-22T04:26:26;8.82;;;6.65;;
2438;SDS011;14509;47.992;7.848;2023-06-22T04:28:28;14.37;;;6.50;;
2438;SDS011;14509;47.992;7.848;2023-06-22T04:30:35;7.83;;;5.73;;
2438;SDS011;14509;47.992;7.848;2023-06-22T04:32:38;10.33;;;5.80;;
2438;SDS011;14509;47.992;7.848;2023-06-22T04:34:41;10.10;;;6.13;;
2438;SDS011;14509;47.992;7.848;2023-06-22T04:36:42;16.03;;;7.67;;
2438;SDS011;14509;47.992;7.848;2023-06-22T04:38:45;10.73;;;6.27;;
2438;SDS011;14509;47.992;7.848;2023-06-22T04:40:47;12.77;;;7.00;;
2438;SDS011;14509;47.992;7.848;2023-06-22T04:42:49;9.80;;;6.70;;
2438;SDS011;14509;47.992;7.848;2023-06-22T04:44:53;10.70;;;6.47;;
2438;SDS011;14509;47.992;7.848;2023-06-22T04:46:57;7.80;;;5.47;;
2438;SDS011;14509;47.992;7.848;2023-06-22T04:49:03;9.63;;;4.90;;
2438;SDS011;14509;47.992;7.848;2023-06-22T04:51:09;6.20;;;5.30;;
2438;SDS011;14509;47.992;7.848;2023-06-22T04:53:11;10.10;;;5.60;;
2438;SDS011;14509;47.992;7.848;2023-06-22T04:55:14;10.83;;;6.17;;
2438;SDS011;14509;47.992;7.848;2023-06-22T04:57:18;11.27;;;7.33;;
2438;SDS011;14509;47.992;7.848;2023-06-22T04:59:20;9.17;;;6.63;;
2438;SDS011;14509;47.992;7.848;2023-06-22T05:01:22;10.37;;;5.80;;
2438;SDS011;14509;47.992;7.848;2023-06-22T05:03:25;8.73;;;6.60;;
2438;SDS011;14509;47.992;7.848;2023-06-22T05:05:29;10.33;;;5.63;;
2438;SDS011;14509;47.992;7.848;2023-06-22T05:07:31;5.83;;;4.90;;
2438;SDS011;14509;47.992;7.848;2023-06-22T05:09:33;8.23;;;5.50;;
2438;SDS011;14509;47.992;7.848;2023-06-22T05:11:35;13.93;;;6.50;;
2438;SDS011;14509;47.992;7.848;2023-06-22T05:13:37;11.43;;;6.70;;
2438;SDS011;14509;47.992;7.848;2023-06-22T05:15:39;9.53;;;6.27;;
2438;SDS011;14509;47.992;7.848;2023-06-22T05:17:40;13.47;;;6.40;;
2438;SDS011;14509;47.992;7.848;2023-06-22T05:19:43;10.77;;;6.10;;
2438;SDS011;14509;47.992;7.848;2023-06-22T05:21:49;9.00;;;5.80;;
2438;SDS011;14509;47.992;7.848;2023-06-22T05:23:51;10.20;;;6.00;;
2438;SDS011;14509;47.992;7.848;2023-06-22T05:25:54;15.17;;;6.50;;
2438;SDS011;14509;47.992;7.848;2023-06-22T05:27:57;8.83;;;6.87;;
2438;SDS011;14509;47.992;7.848;2023-06-22T05:29:59;10.03;;;6.70;;
2438;SDS011;14509;47.992;7.848;2023-06-22T05:32:01;8.40;;;7.10;;
2438;SDS011;14509;47.992;7.848;2023-06-22T05:34:03;7.40;;;6.70;;
2438;SDS011;14509;47.992;7.848;2023-06-22T05:36:05;9.43;;;6.90;;
2438;SDS011;14509;47.992;7.848;2023-06-22T05:38:09;7.93;;;6.87;;
2438;SDS011;14509;47.992;7.848;2023-06-22T05:40:11;11.00;;;6.40;;
2438;SDS011;14509;47.992;7.848;2023-06-22T05:42:13;8.47;;;7.23;;
2438;SDS011;14509;47.992;7.848;2023-06-22T05:44:15;11.60;;;7.03;;
2438;SDS011;14509;47.992;7.848;2023-06-22T05:46:18;11.70;;;7.50;;
2438;SDS011;14509;47.992;7.848;2023-06-22T05:48:20;11.23;;;7.80;;
2438;SDS011;14509;47.992;7.848;2023-06-22T05:50:22;9.47;;;7.07;;
2438;SDS011;14509;47.992;7.848;2023-06-22T05:52:24;11.33;;;7.70;;
2438;SDS011;14509;47.992;7.848;2023-06-22T05:54:28;9.93;;;7.03;;
2438;SDS011;14509;47.992;7.848;2023-06-22T05:56:30;12.13;;;7.30;;
2438;SDS011;14509;47.992;7.848;2023-06-22T05:58:32;10.10;;;7.40;;
2438;SDS011;14509;47.992;7.848;2023-06-22T06:00:34;9.03;;;7.30;;
2438;SDS011;14509;47.992;7.848;2023-06-22T06:02:36;12.30;;;7.47;;
2438;SDS011;14509;47.992;7.848;2023-06-22T06:04:43;10.00;;;7.50;;
2438;SDS011;14509;47.992;7.848;2023-06-22T06:06:45;12.30;;;9.10;;
2438;SDS011;14509;47.992;7.848;2023-06-22T06:08:48;10.87;;;7.70;;
2438;SDS011;14509;47.992;7.848;2023-06-22T06:10:51;13.60;;;7.80;;
2438;SDS011;14509;47.992;7.848;2023-06-22T06:12:55;10.97;;;8.00;;
2438;SDS011;14509;47.992;7.848;2023-06-22T06:14:57;13.57;;;9.03;;
2438;SDS011;14509;47.992;7.848;2023-06-22T06:16:59;10.57;;;8.10;;
2438;SDS011;14509;47.992;7.848;2023-06-22T06:19:01;16.33;;;8.60;;
2438;SDS011;14509;47.992;7.848;2023-06-22T06:21:03;10.43;;;8.57;;
2438;SDS011;14509;47.992;7.848;2023-06-22T06:23:05;14.13;;;8.53;;
2438;SDS011;14509;47.992;7.848;2023-06-22T06:25:07;11.40;;;9.10;;
2438;SDS011;14509;47.992;7.848;2023-06-22T06:27:11;16.73;;;8.93;;
2438;SDS011;14509;47.992;7.848;2023-06-22T06:29:13;10.93;;;8.63;;
2438;SDS011;14509;47.992;7.848;2023-06-22T06:31:16;9.17;;;8.17;;
2438;SDS011;14509;47.992;7.848;2023-06-22T06:33:19;14.70;;;7.97;;
2438;SDS011;14509;47.992;7.848;2023-06-22T06:35:21;12.80;;;9.20;;
2438;SDS011;14509;47.992;7.848;2023-06-22T06:37:23;12.87;;;8.50;;
2438;SDS011;14509;47.992;7.848;2023-06-22T06:39:25;17.70;;;8.57;;
2438;SDS011;14509;47.992;7.848;2023-06-22T06:41:27;14.70;;;8.33;;
2438;SDS011;14509;47.992;7.848;2023-06-22T06:43:31;9.90;;;8.30;;
2438;SDS011;14509;47.992;7.848;2023-06-22T06:45:33;14.37;;;9.70;;
2438;SDS011;14509;47.992;7.848;2023-06-22T06:47:35;9.30;;;8.17;;
2438;SDS011;14509;47.992;7.848;2023-06-22T06:49:37;12.80;;;8.83;;
2438;SDS011;14509;47.992;7.848;2023-06-22T06:51:39;13.50;;;9.40;;
2438;SDS011;14509;47.992;7.848;2023-06-22T06:53:41;10.17;;;9.17;;
2438;SDS011;14509;47.992;7.848;2023-06-22T06:55:43;14.83;;;8.50;;
2438;SDS011;14509;47.992;7.848;2023-06-22T06:57:45;13.70;;;10.18;;
2438;SDS011;14509;47.992;7.848;2023-06-22T06:59:49;9.43;;;8.07;;
2438;SDS011;14509;47.992;7.848;2023-06-22T07:01:51;11.63;;;9.40;;
2438;SDS011;14509;47.992;7.848;2023-06-22T07:03:53;14.83;;;8.53;;
2438;SDS011;14509;47.992;7.848;2023-06-22T07:05:55;8.77;;;7.60;;
2438;SDS011;14509;47.992;7.848;2023-06-22T07:07:57;11.50;;;7.70;;
2438;SDS011;14509;47.992;7.848;2023-06-22T07:10:00;11.20;;;8.03;;
2438;SDS011;14509;47.992;7.848;2023-06-22T07:12:02;11.90;;;7.73;;
2438;SDS011;14509;47.992;7.848;2023-06-22T07:14:07;11.90;;;8.60;;
2438;SDS011;14509;47.992;7.848;2023-06-22T07:16:10;9.93;;;7.87;;
2438;SDS011;14509;47.992;7.848;2023-06-22T07:18:12;9.40;;;8.00;;
2438;SDS011;14509;47.992;7.848;2023-06-22T07:20:14;8.57;;;7.73;;
2438;SDS011;14509;47.992;7.848;2023-06-22T07:22:16;9.20;;;7.00;;
2438;SDS011;14509;47.992;7.848;2023-06-22T07:24:18;11.70;;;8.23;;
2438;SDS011;14509;47.992;7.848;2023-06-22T07:26:21;8.77;;;7.10;;
2438;SDS011;14509;47.992;7.848;2023-06-22T07:28:23;8.80;;;8.00;;
2438;SDS011;14509;47.992;7.848;2023-06-22T07:30:25;12.10;;;7.37;;
2438;SDS011;14509;47.992;7.848;2023-06-22T07:32:28;12.83;;;7.57;;
2438;SDS011;14509;47.992;7.848;2023-06-22T07:34:30;11.03;;;7.70;;
2438;SDS011;14509;47.992;7.848;2023-06-22T07:36:33;11.17;;;7.97;;
2438;SDS011;14509;47.992;7.848;2023-06-22T07:38:36;12.90;;;7.60;;
2438;SDS011;14509;47.992;7.848;2023-06-22T07:40:38;10.00;;;7.83;;
2438;SDS011;14509;47.992;7.848;2023-06-22T07:42:41;9.73;;;7.07;;
2438;SDS011;14509;47.992;7.848;2023-06-22T07:44:44;11.50;;;7.87;;
2438;SDS011;14509;47.992;7.848;2023-06-22T07:46:46;9.80;;;7.80;;
2438;SDS011;14509;47.992;7.848;2023-06-22T07:48:49;9.40;;;5.97;;
2438;SDS011;14509;47.992;7.848;2023-06-22T07:50:51;11.00;;;7.30;;
2438;SDS011;14509;47.992;7.848;2023-06-22T07:52:54;11.07;;;7.67;;
2438;SDS011;14509;47.992;7.848;2023-06-22T07:54:56;8.97;;;6.40;;
2438;SDS011;14509;47.992;7.848;2023-06-22T07:56:58;7.00;;;6.30;;
2438;SDS011;14509;47.992;7.848;2023-06-22T07:59:00;7.50;;;6.43;;
2438;SDS011;14509;47.992;7.848;2023-06-22T08:01:05;9.33;;;7.13;;
2438;SDS011;14509;47.992;7.848;2023-06-22T08:03:09;8.63;;;7.03;;
2438;SDS011;14509;47.992;7.848;2023-06-22T08:05:12;8.67;;;6.50;;
2438;SDS011;14509;47.992;7.848;2023-06-22T08:07:16;7.10;;;6.10;;
2438;SDS011;14509;47.992;7.848;2023-06-22T08:09:23;10.23;;;6.70;;
2438;SDS011;14509;47.992;7.848;2023-06-22T08:11:25;8.33;;;7.50;;
2438;SDS011;14509;47.992;7.848;2023-06-22T08:13:28;13.10;;;6.50;;
2438;SDS011;14509;47.992;7.848;2023-06-22T08:15:30;9.07;;;6.17;;
2438;SDS011;14509;47.992;7.848;2023-06-22T08:17:32;13.00;;;7.70;;
2438;SDS011;14509;47.992;7.848;2023-06-22T08:19:35;8.10;;;5.77;;
2438;SDS011;14509;47.992;7.848;2023-06-22T08:21:43;12.77;;;5.87;;
2438;SDS011;14509;47.992;7.848;2023-06-22T08:23:45;6.80;;;5.97;;
2438;SDS011;14509;47.992;7.848;2023-06-22T08:25:49;10.07;;;5.93;;
2438;SDS011;14509;47.992;7.848;2023-06-22T08:27:51;7.57;;;6.50;;
2438;SDS011;14509;47.992;7.848;2023-06-22T08:29:53;7.53;;;6.60;;
2438;SDS011;14509;47.992;7.848;2023-06-22T08:31:58;12.53;;;8.07;;
2438;SDS011;14509;47.992;7.848;2023-06-22T08:34:00;10.73;;;6.40;;
2438;SDS011;14509;47.992;7.848;2023-06-22T08:36:02;7.70;;;6.10;;
2438;SDS011;14509;47.992;7.848;2023-06-22T08:38:07;8.93;;;6.27;;
2438;SDS011;14509;47.992;7.848;2023-06-22T08:40:10;11.63;;;8.50;;
2438;SDS011;14509;47.992;7.848;2023-06-22T08:42:12;12.00;;;6.50;;
2438;SDS011;14509;47.992;7.848;2023-06-22T08:44:16;11.50;;;6.13;;
2438;SDS011;14509;47.992;7.848;2023-06-22T08:46:19;12.40;;;7.33;;
2438;SDS011;14509;47.992;7.848;2023-06-22T08:48:24;9.90;;;5.80;;
2438;SDS011;14509;47.992;7.848;2023-06-22T08:50:27;8.57;;;7.50;;
2438;SDS011;14509;47.992;7.848;2023-06-22T08:52:29;10.63;;;6.43;;
2438;SDS011;14509;47.992;7.848;2023-06-22T08:54:32;8.43;;;6.20;;
2438;SDS011;14509;47.992;7.848;2023-06-22T08:56:34;6.97;;;6.27;;
2438;SDS011;14509;47.992;7.848;2023-06-22T08:58:36;9.60;;;7.20;;
2438;SDS011;14509;47.992;7.848;2023-06-22T09:00:38;9.43;;;6.57;;
2438;SDS011;14509;47.992;7.848;2023-06-22T09:02:40;10.90;;;8.60;;
2438;SDS011;14509;47.992;7.848;2023-06-22T09:04:42;14.50;;;7.20;;
2438;SDS011;14509;47.992;7.848;2023-06-22T09:06:44;11.13;;;6.60;;
2438;SDS011;14509;47.992;7.848;2023-06-22T09:08:46;7.30;;;6.13;;
2438;SDS011;14509;47.992;7.848;2023-06-22T09:10:50;8.33;;;5.93;;
2438;SDS011;14509;47.992;7.848;2023-06-22T09:12:52;8.20;;;5.97;;
2438;SDS011;14509;47.992;7.848;2023-06-22T09:14:54;10.40;;;9.30;;
2438;SDS011;14509;47.992;7.848;2023-06-22T09:16:56;12.80;;;6.83;;
2438;SDS011;14509;47.992;7.848;2023-06-22T09:18:58;11.60;;;7.07;;
2438;SDS011;14509;47.992;7.848;2023-06-22T09:21:00;6.43;;;5.83;;
2438;SDS011;14509;47.992;7.848;2023-06-22T09:23:02;7.20;;;5.83;;
2438;SDS011;14509;47.992;7.848;2023-06-22T09:25:04;8.87;;;5.57;;
2438;SDS011;14509;47.992;7.848;2023-06-22T09:27:09;8.67;;;6.37;;
2438;SDS011;14509;47.992;7.848;2023-06-22T09:29:11;9.73;;;6.43;;
2438;SDS011;14509;47.992;7.848;2023-06-22T09:31:12;6.67;;;6.00;;
2438;SDS011;14509;47.992;7.848;2023-06-22T09:33:16;7.60;;;6.13;;
2438;SDS011;14509;47.992;7.848;2023-06-22T09:35:20;7.27;;;6.57;;
2438;SDS011;14509;47.992;7.848;2023-06-22T09:37:22;8.57;;;5.77;;
2438;SDS011;14509;47.992;7.848;2023-06-22T09:39:24;9.17;;;7.27;;
2438;SDS011;14509;47.992;7.848;2023-06-22T09:41:26;7.90;;;7.10;;
2438;SDS011;14509;47.992;7.848;2023-06-22T09:43:30;10.80;;;6.70;;
2438;SDS011;14509;47.992;7.848;2023-06-22T09:45:35;9.13;;;7.20;;
2438;SDS011;14509;47.992;7.848;2023-06-22T09:47:37;9.93;;;7.60;;
2438;SDS011;14509;47.992;7.848;2023-06-22T09:49:39;9.30;;;6.03;;
2438;SDS011;14509;47.992;7.848;2023-06-22T09:51:41;8.80;;;7.47;;
2438;SDS011;14509;47.992;7.848;2023-06-22T09:53:43;7.30;;;6.50;;
2438;SDS011;14509;47.992;7.848;2023-06-22T09:55:46;7.73;;;6.40;;
2438;SDS011;14509;47.992;7.848;2023-06-22T09:57:48;9.47;;;6.63;;
2438;SDS011;14509;47.992;7.848;2023-06-22T09:59:52;8.30;;;6.70;;
2438;SDS011;14509;47.992;7.848;2023-06-22T10:01:54;8.43;;;7.47;;
2438;SDS011;14509;47.992;7.848;2023-06-22T10:03:57;8.13;;;6.60;;
2438;SDS011;14509;47.992;7.848;2023-06-22T10:05:59;13.30;;;7.80;;
2438;SDS011;14509;47.992;7.848;2023-06-22T10:08:03;12.63;;;7.30;;
2438;SDS011;14509;47.992;7.848;2023-06-22T10:10:08;8.43;;;6.50;;
2438;SDS011;14509;47.992;7.848;2023-06-22T10:12:10;13.20;;;6.80;;
2438;SDS011;14509;47.992;7.848;2023-06-22T10:14:12;10.67;;;6.70;;
2438;SDS011;14509;47.992;7.848;2023-06-22T10:16:16;8.30;;;6.50;;
2438;SDS011;14509;47.992;7.848;2023-06-22T10:18:18;10.63;;;6.47;;
2438;SDS011;14509;47.992;7.848;2023-06-22T10:20:21;7.90;;;7.10;;
2438;SDS011;14509;47.992;7.848;2023-06-22T10:22:23;10.30;;;7.13;;
2438;SDS011;14509;47.992;7.848;2023-06-22T10:24:25;8.23;;;6.73;;
2438;SDS011;14509;47.992;7.848;2023-06-22T10:26:27;9.03;;;7.50;;
2438;SDS011;14509;47.992;7.848;2023-06-22T10:28:33;10.33;;;7.70;;
2438;SDS011;14509;47.992;7.848;2023-06-22T10:30:35;9.33;;;6.83;;
2438;SDS011;14509;47.992;7.848;2023-06-22T10:32:38;10.00;;;6.73;;
2438;SDS011;14509;47.992;7.848;2023-06-22T10:34:42;8.87;;;6.80;;
2438;SDS011;14509;47.992;7.848;2023-06-22T10:36:44;7.17;;;6.40;;
2438;SDS011;14509;47.992;7.848;2023-06-22T10:38:50;9.20;;;6.67;;
2438;SDS011;14509;47.992;7.848;2023-06-22T10:40:53;8.37;;;7.23;;
2438;SDS011;14509;47.992;7.848;2023-06-22T11:06:55;8.27;;;6.60;;
2438;SDS011;14509;47.992;7.848;2023-06-22T11:08:58;9.13;;;7.00;;
2438;SDS011;14509;47.992;7.848;2023-06-22T11:11:00;13.53;;;6.87;;
2438;SDS011;14509;47.992;7.848;2023-06-22T11:13:04;10.00;;;6.70;;
2438;SDS011;14509;47.992;7.848;2023-06-22T11:15:12;9.70;;;8.73;;
2438;SDS011;14509;47.992;7.848;2023-06-22T11:17:14;11.70;;;7.70;;
2438;SDS011;14509;47.992;7.848;2023-06-22T11:19:16;10.43;;;8.10;;
2438;SDS011;14509;47.992;7.848;2023-06-22T11:21:18;12.27;;;8.00;;
2438;SDS011;14509;47.992;7.848;2023-06-22T11:23:29;11.00;;;7.37;;
2438;SDS011;14509;47.992;7.848;2023-06-22T11:25:33;8.00;;;7.07;;
2438;SDS011;14509;47.992;7.848;2023-06-22T11:27:45;7.80;;;7.10;;
2438;SDS011;14509;47.992;7.848;2023-06-22T11:29:57;12.57;;;9.23;;
2438;SDS011;14509;47.992;7.848;2023-06-22T11:32:01;12.80;;;7.67;;
2438;SDS011;14509;47.992;7.848;2023-06-22T11:34:15;12.03;;;7.40;;
2438;SDS011;14509;47.992;7.848;2023-06-22T11:36:20;11.20;;;7.83;;
2438;SDS011;14509;47.992;7.848;2023-06-22T11:38:28;8.53;;;7.47;;
2438;SDS011;14509;47.992;7.848;2023-06-22T11:40:32;12.00;;;8.03;;
2438;SDS011;14509;47.992;7.848;2023-06-22T11:42:37;8.80;;;7.50;;
2438;SDS011;14509;47.992;7.848;2023-06-22T11:44:41;11.20;;;7.67;;
2438;SDS011;14509;47.992;7.848;2023-06-22T11:46:45;12.60;;;8.37;;
2438;SDS011;14509;47.992;7.848;2023-06-22T11:48:51;10.63;;;7.90;;
2438;SDS011;14509;47.992;7.848;2023-06-22T11:50:55;12.97;;;8.40;;
2438;SDS011;14509;47.992;7.848;2023-06-22T11:53:57;8.47;;;7.57;;
2438;SDS011;14509;47.992;7.848;2023-06-22T11:56:29;13.67;;;7.83;;
2438;SDS011;14509;47.992;7.848;2023-06-22T11:58:36;10.23;;;7.87;;
2438;SDS011;14509;47.992;7.848;2023-06-22T12:01:16;13.07;;;7.70;;
2438;SDS011;14509;47.992;7.848;2023-06-22T12:03:27;9.83;;;7.07;;
2438;SDS011;14509;47.992;7.848;2023-06-22T12:06:20;9.80;;;7.83;;
2438;SDS011;14509;47.992;7.848;2023-06-22T12:08:28;8.57;;;7.10;;
2438;SDS011;14509;47.992;7.848;2023-06-22T12:10:37;8.77;;;7.87;;
2438;SDS011;14509;47.992;7.848;2023-06-22T12:12:47;11.17;;;8.57;;
2438;SDS011;14509;47.992;7.848;2023-06-22T12:15:02;11.43;;;7.43;;
2438;SDS011;14509;47.992;7.848;2023-06-22T12:17:06;12.93;;;8.10;;
2438;SDS011;14509;47.992;7.848;2023-06-22T12:19:15;12.40;;;8.43;;
2438;SDS011;14509;47.992;7.848;2023-06-22T12:21:19;12.70;;;8.70;;
2438;SDS011;14509;47.992;7.848;2023-06-22T12:23:23;9.43;;;7.90;;
2438;SDS011;14509;47.992;7.848;2023-06-22T12:25:45;10.47;;;7.53;;
2438;SDS011;14509;47.992;7.848;2023-06-22T12:27:48;12.30;;;7.60;;
2438;SDS011;14509;47.992;7.848;2023-06-22T12:29:52;18.63;;;8.13;;
2438;SDS011;14509;47.992;7.848;2023-06-22T12:31:58;17.23;;;9.67;;
2438;SDS011;14509;47.992;7.848;2023-06-22T12:34:00;11.67;;;7.73;;
2438;SDS011;14509;47.992;7.848;2023-06-22T12:36:02;9.20;;;8.30;;
2438;SDS011;14509;47.992;7.848;2023-06-22T12:38:05;13.57;;;8.20;;
2438;SDS011;14509;47.992;7.848;2023-06-22T12:40:08;10.90;;;7.23;;
2438;SDS011;14509;47.992;7.848;2023-06-22T12:42:13;9.20;;;6.67;;
2438;SDS011;14509;47.992;7.848;2023-06-22T12:44:15;10.20;;;7.00;;
2438;SDS011;14509;47.992;7.848;2023-06-22T12:46:16;12.57;;;7.17;;
2438;SDS011;14509;47.992;7.848;2023-06-22T12:48:18;9.43;;;6.60;;
2438;SDS011;14509;47.992;7.848;2023-06-22T12:50:20;8.37;;;6.17;;
2438;SDS011;14509;47.992;7.848;2023-06-22T12:52:22;14.20;;;6.23;;
2438;SDS011;14509;47.992;7.848;2023-06-22T12:54:24;8.33;;;5.90;;
2438;SDS011;14509;47.992;7.848;2023-06-22T12:56:29;13.00;;;6.37;;
2438;SDS011;14509;47.992;7.848;2023-06-22T12:59:30;12.67;;;8.23;;
2438;SDS011;14509;47.992;7.848;2023-06-22T13:01:32;11.53;;;6.47;;
2438;SDS011;14509;47.992;7.848;2023-06-22T13:03:34;9.70;;;6.83;;
2438;SDS011;14509;47.992;7.848;2023-06-22T13:05:36;10.97;;;6.90;;
2438;SDS011;14509;47.992;7.848;2023-06-22T13:07:38;10.93;;;6.10;;
2438;SDS011;14509;47.992;7.848;2023-06-22T13:09:42;8.37;;;6.60;;
2438;SDS011;14509;47.992;7.848;2023-06-22T13:11:46;10.07;;;6.00;;
2438;SDS011;14509;47.992;7.848;2023-06-22T13:13:49;9.60;;;5.63;;
2438;SDS011;14509;47.992;7.848;2023-06-22T13:15:53;11.23;;;7.20;;
2438;SDS011;14509;47.992;7.848;2023-06-22T13:17:55;12.13;;;6.00;;
2438;SDS011;14509;47.992;7.848;2023-06-22T13:19:58;7.80;;;5.40;;
2438;SDS011;14509;47.992;7.848;2023-06-22T13:22:00;12.43;;;6.40;;
2438;SDS011;14509;47.992;7.848;2023-06-22T13:24:04;10.80;;;6.50;;
2438;SDS011;14509;47.992;7.848;2023-06-22T13:26:07;9.10;;;5.70;;
2438;SDS011;14509;47.992;7.848;2023-06-22T13:28:10;10.40;;;6.97;;
2438;SDS011;14509;47.992;7.848;2023-06-22T13:30:13;8.33;;;6.50;;
2438;SDS011;14509;47.992;7.848;2023-06-22T13:32:18;8.90;;;6.40;;
2438;SDS011;14509;47.992;7.848;2023-06-22T13:34:20;10.30;;;6.90;;
2438;SDS011;14509;47.992;7.848;2023-06-22T13:36:22;8.97;;;6.87;;
2438;SDS011;14509;47.992;7.848;2023-06-22T13:38:24;8.30;;;5.87;;
2438;SDS011;14509;47.992;7.848;2023-06-22T13:40:27;11.50;;;6.33;;
2438;SDS011;14509;47.992;7.848;2023-06-22T13:42:29;9.20;;;5.77;;
2438;SDS011;14509;47.992;7.848;2023-06-22T13:44:31;12.77;;;6.30;;
2438;SDS011;14509;47.992;7.848;2023-06-22T13:46:33;11.63;;;6.60;;
2438;SDS011;14509;47.992;7.848;2023-06-22T13:48:37;6.70;;;5.37;;
2438;SDS011;14509;47.992;7.848;2023-06-22T13:50:41;8.97;;;5.47;;
2438;SDS011;14509;47.992;7.848;2023-06-22T13:52:42;7.00;;;5.30;;
2438;SDS011;14509;47.992;7.848;2023-06-22T13:54:45;9.80;;;5.17;;
2438;SDS011;14509;47.992;7.848;2023-06-22T13:56:46;8.70;;;5.40;;
2438;SDS011;14509;47.992;7.848;2023-06-22T13:58:48;8.47;;;5.00;;
2438;SDS011;14509;47.992;7.848;2023-06-22T14:00:50;15.10;;;6.63;;
2438;SDS011;14509;47.992;7.848;2023-06-22T14:02:52;8.20;;;5.27;;
2438;SDS011;14509;47.992;7.848;2023-06-22T14:04:56;8.90;;;5.27;;
2438;SDS011;14509;47.992;7.848;2023-06-22T14:07:01;8.77;;;6.10;;
2438;SDS011;14509;47.992;7.848;2023-06-22T14:09:03;7.40;;;5.23;;
2438;SDS011;14509;47.992;7.848;2023-06-22T14:11:07;7.97;;;5.27;;
2438;SDS011;14509;47.992;7.848;2023-06-22T14:13:09;8.60;;;5.73;;
2438;SDS011;14509;47.992;7.848;2023-06-22T14:15:11;6.87;;;6.00;;
2438;SDS011;14509;47.992;7.848;2023-06-22T14:17:13;7.03;;;5.40;;
2438;SDS011;14509;47.992;7.848;2023-06-22T14:19:16;9.03;;;5.67;;
2438;SDS011;14509;47.992;7.848;2023-06-22T14:21:21;11.20;;;6.73;;
2438;SDS011;14509;47.992;7.848;2023-06-22T14:23:23;8.57;;;6.70;;
2438;SDS011;14509;47.992;7.848;2023-06-22T14:25:25;6.97;;;5.33;;
2438;SDS011;14509;47.992;7.848;2023-06-22T14:27:28;9.10;;;5.60;;
2438;SDS011;14509;47.992;7.848;2023-06-22T14:29:30;16.80;;;6.10;;
2438;SDS011;14509;47.992;7.848;2023-06-22T14:31:32;8.37;;;6.03;;
2438;SDS011;14509;47.992;7.848;2023-06-22T14:33:34;8.53;;;5.77;;
2438;SDS011;14509;47.992;7.848;2023-06-22T14:35:36;7.20;;;5.63;;
2438;SDS011;14509;47.992;7.848;2023-06-22T14:37:39;7.57;;;6.20;;
2438;SDS011;14509;47.992;7.848;2023-06-22T14:39:41;7.90;;;5.80;;
2438;SDS011;14509;47.992;7.848;2023-06-22T14:41:43;9.10;;;6.33;;
2438;SDS011;14509;47.992;7.848;2023-06-22T14:43:45;12.83;;;6.23;;
2438;SDS011;14509;47.992;7.848;2023-06-22T14:45:47;9.30;;;5.83;;
2438;SDS011;14509;47.992;7.848;2023-06-22T14:47:49;6.80;;;5.80;;
2438;SDS011;14509;47.992;7.848;2023-06-22T14:49:51;7.57;;;5.10;;
2438;SDS011;14509;47.992;7.848;2023-06-22T14:51:53;6.20;;;5.53;;
2438;SDS011;14509;47.992;7.848;2023-06-22T14:53:57;9.60;;;5.40;;
2438;SDS011;14509;47.992;7.848;2023-06-22T14:55:59;8.40;;;5.10;;
2438;SDS011;14509;47.992;7.848;2023-06-22T14:58:02;7.60;;;5.90;;
2438;SDS011;14509;47.992;7.848;2023-06-22T15:00:04;9.33;;;5.13;;
2438;SDS011;14509;47.992;7.848;2023-06-22T15:02:07;7.47;;;4.90;;
2438;SDS011;14509;47.992;7.848;2023-06-22T15:04:10;8.80;;;5.37;;
2438;SDS011;14509;47.992;7.848;2023-06-22T15:06:12;7.30;;;4.87;;
2438;SDS011;14509;47.992;7.848;2023-06-22T15:08:14;7.33;;;4.77;;
2438;SDS011;14509;47.992;7.848;2023-06-22T15:10:18;7.23;;;5.03;;
2438;SDS011;14509;47.992;7.848;2023-06-22T15:12:20;9.73;;;5.30;;
2438;SDS011;14509;47.992;7.848;2023-06-22T15:14:22;9.27;;;4.63;;
2438;SDS011;14509;47.992;7.848;2023-06-22T15:16:25;5.83;;;4.50;;
2438;SDS011;14509;47.992;7.848;2023-06-22T15:18:27;11.53;;;5.70;;
2438;SDS011;14509;47.992;7.848;2023-06-22T15:20:31;7.37;;;5.73;;
2438;SDS011;14509;47.992;7.848;2023-06-22T15:22:33;8.43;;;4.63;;
2438;SDS011;14509;47.992;7.848;2023-06-22T15:24:35;7.17;;;4.57;;
2438;SDS011;14509;47.992;7.848;2023-06-22T15:26:39;11.93;;;5.20;;
2438;SDS011;14509;47.992;7.848;2023-06-22T15:28:41;13.40;;;5.33;;
2438;SDS011;14509;47.992;7.848;2023-06-22T15:30:43;5.67;;;5.00;;
2438;SDS011;14509;47.992;7.848;2023-06-22T15:32:45;8.90;;;4.70;;
2438;SDS011;14509;47.992;7.848;2023-06-22T15:34:47;7.33;;;4.50;;
2438;SDS011;14509;47.992;7.848;2023-06-22T15:36:56;12.83;;;10.50;;
2438;SDS011;14509;47.992;7.848;2023-06-22T15:38:58;7.83;;;4.60;;
2438;SDS011;14509;47.992;7.848;2023-06-22T15:41:02;8.73;;;5.20;;
2438;SDS011;14509;47.992;7.848;2023-06-22T15:43:06;14.80;;;4.77;;
2438;SDS011;14509;47.992;7.848;2023-06-22T15:45:11;8.07;;;4.13;;
2438;SDS011;14509;47.992;7.848;2023-06-22T15:47:13;8.63;;;5.00;;
2438;SDS011;14509;47.992;7.848;2023-06-22T15:49:17;5.03;;;4.10;;
2438;SDS011;14509;47.992;7.848;2023-06-22T15:51:18;10.90;;;4.77;;